Liberty — ZGBV9 — position and weather

sailwx.info

Track history (hours):
 
Tides and Currents Weather Stations Pressure Air Temp Water Temp Dewpoint Dewpoint Depression Visibility Wind Speed Wind Dir Waves Ship Positions

Liberty

Last reported at 2017-Aug-22 07:09 UTC. Time now 2017-Sep-24 14:24 UTC.
Position N 37°26' E 025°55'.
Warning: this ship's position is 33 days out of date.

Length 50 m; draft 2.9 m.

Type: Pleasure craft. MMSI: 319453000.

Date/timePositionNaut miles runAvg speedWind from/ knotsBaromVisibWave heightAir tempDewpointWater temp
2017-Aug-22 07:09N 37°26' E 025°55'210.8
2017-Aug-22 07:00N 37°27' E 025°54'611.2
2017-Aug-22 06:30N 37°28' E 025°47'611.2
2017-Aug-22 06:00N 37°29' E 025°40'611.9
2017-Aug-22 05:30N 37°29' E 025°32'611.8
2017-Aug-22 05:00N 37°30' E 025°25'510.8
2017-Aug-22 04:30N 37°29' E 025°18'3 5.2
2017-Aug-22 04:00N 37°27' E 025°20'0 0.0
2017-Aug-22 03:30N 37°27' E 025°20'0 0.0
2017-Aug-22 03:00N 37°27' E 025°20'0 0.0
2017-Aug-22 02:30N 37°27' E 025°20'0 0.0
2017-Aug-22 02:00N 37°27' E 025°20'0 0.0
2017-Aug-22 01:30N 37°27' E 025°20'0 0.0
2017-Aug-22 01:00N 37°27' E 025°20'0 0.0
2017-Aug-22 00:30N 37°27' E 025°20'0 0.0
2017-Aug-22 00:00N 37°27' E 025°20'0 0.0
2017-Aug-21 23:30N 37°27' E 025°20'0 0.0
2017-Aug-21 23:00N 37°27' E 025°20'0 0.0
2017-Aug-21 22:30N 37°27' E 025°20'0 0.0
2017-Aug-21 22:00N 37°27' E 025°20'0 0.0
2017-Aug-21 21:30N 37°27' E 025°20'0 0.0
2017-Aug-21 21:00N 37°27' E 025°20'0 0.0
2017-Aug-21 20:30N 37°27' E 025°20'0 0.0
2017-Aug-21 20:00N 37°27' E 025°20'0 0.0
2017-Aug-21 19:30N 37°27' E 025°20'0 0.0
2017-Aug-21 19:00N 37°27' E 025°20'0 0.0
2017-Aug-21 18:30N 37°27' E 025°20'0 0.0
2017-Aug-21 18:00N 37°27' E 025°20'0 0.0
2017-Aug-21 17:30N 37°27' E 025°20'0 0.0
2017-Aug-21 17:00N 37°27' E 025°20'0 0.0
2017-Aug-21 16:30N 37°27' E 025°20'0 0.0
2017-Aug-21 16:00N 37°27' E 025°20'0 0.0
2017-Aug-21 15:30N 37°27' E 025°20'1 2.9
2017-Aug-21 15:01N 37°27' E 025°18'3 6.0
2017-Aug-21 14:30N 37°25' E 025°20'0 0.3
2017-Aug-21 14:00N 37°25' E 025°20'0 0.0
2017-Aug-21 13:30N 37°25' E 025°20'0 0.0
2017-Aug-21 13:00N 37°25' E 025°20'0 0.1
2017-Aug-21 12:30N 37°25' E 025°20'0 0.0
2017-Aug-21 12:01N 37°25' E 025°20'0 0.0
2017-Aug-21 11:30N 37°25' E 025°20'0 0.1
2017-Aug-21 11:00N 37°25' E 025°20'0 0.0
2017-Aug-21 10:30N 37°25' E 025°20'0 0.0
2017-Aug-21 10:00N 37°25' E 025°20'3 5.6
2017-Aug-21 09:30N 37°22' E 025°20'4 7.8
2017-Aug-21 09:00N 37°18' E 025°19'611.4
2017-Aug-21 08:30N 37°12' E 025°19'611.5
2017-Aug-21 08:00N 37°07' E 025°19'611.1
2017-Aug-21 07:30N 37°01' E 025°18'2 0.1
2017-Aug-20 06:28N 36°59' E 025°17'612.8
2017-Aug-20 06:00N 37°05' E 025°19'612.2
2017-Aug-20 05:30N 37°11' E 025°19'611.9
2017-Aug-20 05:00N 37°17' E 025°18'612.2
2017-Aug-20 04:30N 37°23' E 025°17'4 8.7
2017-Aug-20 04:00N 37°27' E 025°20'0 0.1
2017-Aug-20 03:30N 37°27' E 025°20'0 0.0
2017-Aug-20 03:00N 37°27' E 025°20'0 0.0
2017-Aug-20 02:30N 37°27' E 025°20'0 0.0
2017-Aug-20 02:00N 37°27' E 025°20'0 0.0
2017-Aug-20 01:30N 37°27' E 025°20'0 0.0
2017-Aug-20 01:00N 37°27' E 025°20'0 0.0
2017-Aug-20 00:30N 37°27' E 025°20'0 0.0
2017-Aug-20 00:00N 37°27' E 025°20'0 0.0
2017-Aug-19 23:30N 37°27' E 025°20'0 0.0
2017-Aug-19 23:00N 37°27' E 025°20'0 0.0
2017-Aug-19 22:30N 37°27' E 025°20'0 0.0
2017-Aug-19 22:00N 37°27' E 025°20'0 0.0
2017-Aug-19 21:30N 37°27' E 025°20'0 0.0
2017-Aug-19 21:00N 37°27' E 025°20'0 0.0
2017-Aug-19 20:30N 37°27' E 025°20'0 0.0
2017-Aug-19 20:00N 37°27' E 025°20'0 0.0
2017-Aug-19 19:30N 37°27' E 025°20'0 0.0
2017-Aug-19 19:00N 37°27' E 025°20'0 0.0
2017-Aug-19 18:30N 37°27' E 025°20'0 0.0
2017-Aug-19 18:00N 37°27' E 025°20'0 0.0
2017-Aug-19 17:30N 37°27' E 025°20'0 0.0
2017-Aug-19 17:00N 37°27' E 025°20'0 0.0
2017-Aug-19 16:30N 37°27' E 025°20'0 0.0
2017-Aug-19 16:00N 37°27' E 025°20'0 0.0
2017-Aug-19 15:30N 37°27' E 025°20'0 0.0
2017-Aug-19 15:00N 37°27' E 025°20'3 2.5
2017-Aug-19 14:00N 37°25' E 025°20'0 0.0
2017-Aug-19 13:30N 37°25' E 025°20'0 0.1
2017-Aug-19 13:01N 37°25' E 025°20'0 0.1
2017-Aug-19 12:30N 37°25' E 025°20'0 0.0
2017-Aug-19 12:00N 37°25' E 025°20'0 0.0
2017-Aug-19 11:30N 37°25' E 025°20'0 0.0
2017-Aug-19 11:00N 37°25' E 025°20'0 0.0
2017-Aug-19 10:30N 37°25' E 025°20'0 0.0
2017-Aug-19 10:00N 37°25' E 025°20'0 0.0
2017-Aug-19 09:30N 37°25' E 025°20'0 0.0
2017-Aug-19 09:00N 37°25' E 025°20'0 0.0
2017-Aug-19 08:30N 37°25' E 025°20'0 0.0
2017-Aug-19 08:00N 37°25' E 025°20'0 0.0
2017-Aug-19 07:30N 37°25' E 025°20'0 0.1
2017-Aug-19 07:00N 37°25' E 025°20'3 5.3
2017-Aug-19 06:30N 37°24' E 025°23'611.9
2017-Aug-19 06:00N 37°23' E 025°31'1212.0
2017-Aug-19 05:00N 37°21' E 025°46'611.9
2017-Aug-19 04:30N 37°20' E 025°53'  
2017-Aug-12 22:39N 37°20' E 025°54'211.2
2017-Aug-12 22:30N 37°21' E 025°52'611.9
2017-Aug-12 22:00N 37°22' E 025°45'611.7
2017-Aug-12 21:30N 37°22' E 025°38'611.7
2017-Aug-12 21:00N 37°23' E 025°30'611.7
2017-Aug-12 20:30N 37°24' E 025°23'3 6.1
2017-Aug-12 20:00N 37°25' E 025°19'0 0.0
2017-Aug-12 19:30N 37°25' E 025°19'0 0.0
2017-Aug-12 19:00N 37°25' E 025°19'0 0.1
2017-Aug-12 18:30N 37°25' E 025°19'0 0.0
2017-Aug-12 18:00N 37°25' E 025°19'0 0.1
2017-Aug-12 17:30N 37°25' E 025°19'3 6.2
2017-Aug-12 17:00N 37°25' E 025°23'0 0.1
2017-Aug-12 16:30N 37°25' E 025°23'0 0.0
2017-Aug-12 16:00N 37°25' E 025°23'0 0.0
2017-Aug-12 15:30N 37°25' E 025°23'0 0.0
2017-Aug-12 15:00N 37°25' E 025°23'0 0.1
2017-Aug-12 14:30N 37°25' E 025°23'0 0.0
2017-Aug-12 14:01N 37°25' E 025°23'0 0.0
2017-Aug-12 13:30N 37°25' E 025°23'0 0.0
2017-Aug-12 13:01N 37°25' E 025°23'0 0.0
2017-Aug-12 12:30N 37°25' E 025°23'0 0.0
2017-Aug-12 12:01N 37°25' E 025°23'0 0.1
2017-Aug-12 11:30N 37°25' E 025°23'0 0.0
2017-Aug-12 11:00N 37°25' E 025°23'0 0.0
2017-Aug-12 10:30N 37°25' E 025°23'0 0.0
2017-Aug-12 10:00N 37°25' E 025°23'0 0.0
2017-Aug-12 09:30N 37°25' E 025°23'0 0.0
2017-Aug-12 09:00N 37°25' E 025°23'0 0.1
2017-Aug-12 08:30N 37°25' E 025°23'0 0.0
2017-Aug-12 08:00N 37°25' E 025°23'0 0.0
2017-Aug-12 07:31N 37°25' E 025°23'  
Track history (hours):
 
Tides and Currents Weather Stations Pressure Air Temp Water Temp Dewpoint Dewpoint Depression Visibility Wind Speed Wind Dir Waves Ship Positions

Liberty

Last reported at 2017-Aug-22 07:09 UTC. Time now 2017-Sep-24 14:24 UTC.
Position N 37°26' E 025°55'.
Warning: this ship's position is 33 days out of date.

Length 50 m; draft 2.9 m.

Type: Pleasure craft. MMSI: 319453000.

Date/timePositionNaut miles runAvg speedWind from/ knotsBaromVisibWave heightAir tempDewpointWater temp
2017-Aug-22 07:09N 37°26' E 025°55'210.8
2017-Aug-22 07:00N 37°27' E 025°54'611.2
2017-Aug-22 06:30N 37°28' E 025°47'611.2
2017-Aug-22 06:00N 37°29' E 025°40'611.9
2017-Aug-22 05:30N 37°29' E 025°32'611.8
2017-Aug-22 05:00N 37°30' E 025°25'510.8
2017-Aug-22 04:30N 37°29' E 025°18'3 5.2
2017-Aug-22 04:00N 37°27' E 025°20'0 0.0
2017-Aug-22 03:30N 37°27' E 025°20'0 0.0
2017-Aug-22 03:00N 37°27' E 025°20'0 0.0
2017-Aug-22 02:30N 37°27' E 025°20'0 0.0
2017-Aug-22 02:00N 37°27' E 025°20'0 0.0
2017-Aug-22 01:30N 37°27' E 025°20'0 0.0
2017-Aug-22 01:00N 37°27' E 025°20'0 0.0
2017-Aug-22 00:30N 37°27' E 025°20'0 0.0
2017-Aug-22 00:00N 37°27' E 025°20'0 0.0
2017-Aug-21 23:30N 37°27' E 025°20'0 0.0
2017-Aug-21 23:00N 37°27' E 025°20'0 0.0
2017-Aug-21 22:30N 37°27' E 025°20'0 0.0
2017-Aug-21 22:00N 37°27' E 025°20'0 0.0
2017-Aug-21 21:30N 37°27' E 025°20'0 0.0
2017-Aug-21 21:00N 37°27' E 025°20'0 0.0
2017-Aug-21 20:30N 37°27' E 025°20'0 0.0
2017-Aug-21 20:00N 37°27' E 025°20'0 0.0
2017-Aug-21 19:30N 37°27' E 025°20'0 0.0
2017-Aug-21 19:00N 37°27' E 025°20'0 0.0
2017-Aug-21 18:30N 37°27' E 025°20'0 0.0
2017-Aug-21 18:00N 37°27' E 025°20'0 0.0
2017-Aug-21 17:30N 37°27' E 025°20'0 0.0
2017-Aug-21 17:00N 37°27' E 025°20'0 0.0
2017-Aug-21 16:30N 37°27' E 025°20'0 0.0
2017-Aug-21 16:00N 37°27' E 025°20'0 0.0
2017-Aug-21 15:30N 37°27' E 025°20'1 2.9
2017-Aug-21 15:01N 37°27' E 025°18'3 6.0
2017-Aug-21 14:30N 37°25' E 025°20'0 0.3
2017-Aug-21 14:00N 37°25' E 025°20'0 0.0
2017-Aug-21 13:30N 37°25' E 025°20'0 0.0
2017-Aug-21 13:00N 37°25' E 025°20'0 0.1
2017-Aug-21 12:30N 37°25' E 025°20'0 0.0
2017-Aug-21 12:01N 37°25' E 025°20'0 0.0
2017-Aug-21 11:30N 37°25' E 025°20'0 0.1
2017-Aug-21 11:00N 37°25' E 025°20'0 0.0
2017-Aug-21 10:30N 37°25' E 025°20'0 0.0
2017-Aug-21 10:00N 37°25' E 025°20'3 5.6
2017-Aug-21 09:30N 37°22' E 025°20'4 7.8
2017-Aug-21 09:00N 37°18' E 025°19'611.4
2017-Aug-21 08:30N 37°12' E 025°19'611.5
2017-Aug-21 08:00N 37°07' E 025°19'611.1
2017-Aug-21 07:30N 37°01' E 025°18'2 0.1
2017-Aug-20 06:28N 36°59' E 025°17'612.8
2017-Aug-20 06:00N 37°05' E 025°19'612.2
2017-Aug-20 05:30N 37°11' E 025°19'611.9
2017-Aug-20 05:00N 37°17' E 025°18'612.2
2017-Aug-20 04:30N 37°23' E 025°17'4 8.7
2017-Aug-20 04:00N 37°27' E 025°20'0 0.1
2017-Aug-20 03:30N 37°27' E 025°20'0 0.0
2017-Aug-20 03:00N 37°27' E 025°20'0 0.0
2017-Aug-20 02:30N 37°27' E 025°20'0 0.0
2017-Aug-20 02:00N 37°27' E 025°20'0 0.0
2017-Aug-20 01:30N 37°27' E 025°20'0 0.0
2017-Aug-20 01:00N 37°27' E 025°20'0 0.0
2017-Aug-20 00:30N 37°27' E 025°20'0 0.0
2017-Aug-20 00:00N 37°27' E 025°20'0 0.0
2017-Aug-19 23:30N 37°27' E 025°20'0 0.0
2017-Aug-19 23:00N 37°27' E 025°20'0 0.0
2017-Aug-19 22:30N 37°27' E 025°20'0 0.0
2017-Aug-19 22:00N 37°27' E 025°20'0 0.0
2017-Aug-19 21:30N 37°27' E 025°20'0 0.0
2017-Aug-19 21:00N 37°27' E 025°20'0 0.0
2017-Aug-19 20:30N 37°27' E 025°20'0 0.0
2017-Aug-19 20:00N 37°27' E 025°20'0 0.0
2017-Aug-19 19:30N 37°27' E 025°20'0 0.0
2017-Aug-19 19:00N 37°27' E 025°20'0 0.0
2017-Aug-19 18:30N 37°27' E 025°20'0 0.0
2017-Aug-19 18:00N 37°27' E 025°20'0 0.0
2017-Aug-19 17:30N 37°27' E 025°20'0 0.0
2017-Aug-19 17:00N 37°27' E 025°20'0 0.0
2017-Aug-19 16:30N 37°27' E 025°20'0 0.0
2017-Aug-19 16:00N 37°27' E 025°20'0 0.0
2017-Aug-19 15:30N 37°27' E 025°20'0 0.0
2017-Aug-19 15:00N 37°27' E 025°20'3 2.5
2017-Aug-19 14:00N 37°25' E 025°20'0 0.0
2017-Aug-19 13:30N 37°25' E 025°20'0 0.1
2017-Aug-19 13:01N 37°25' E 025°20'0 0.1
2017-Aug-19 12:30N 37°25' E 025°20'0 0.0
2017-Aug-19 12:00N 37°25' E 025°20'0 0.0
2017-Aug-19 11:30N 37°25' E 025°20'0 0.0
2017-Aug-19 11:00N 37°25' E 025°20'0 0.0
2017-Aug-19 10:30N 37°25' E 025°20'0 0.0
2017-Aug-19 10:00N 37°25' E 025°20'0 0.0
2017-Aug-19 09:30N 37°25' E 025°20'0 0.0
2017-Aug-19 09:00N 37°25' E 025°20'0 0.0
2017-Aug-19 08:30N 37°25' E 025°20'0 0.0
2017-Aug-19 08:00N 37°25' E 025°20'0 0.0
2017-Aug-19 07:30N 37°25' E 025°20'0 0.1
2017-Aug-19 07:00N 37°25' E 025°20'3 5.3
2017-Aug-19 06:30N 37°24' E 025°23'611.9
2017-Aug-19 06:00N 37°23' E 025°31'1212.0
2017-Aug-19 05:00N 37°21' E 025°46'611.9
2017-Aug-19 04:30N 37°20' E 025°53'  
2017-Aug-12 22:39N 37°20' E 025°54'211.2
2017-Aug-12 22:30N 37°21' E 025°52'611.9
2017-Aug-12 22:00N 37°22' E 025°45'611.7
2017-Aug-12 21:30N 37°22' E 025°38'611.7
2017-Aug-12 21:00N 37°23' E 025°30'611.7
2017-Aug-12 20:30N 37°24' E 025°23'3 6.1
2017-Aug-12 20:00N 37°25' E 025°19'0 0.0
2017-Aug-12 19:30N 37°25' E 025°19'0 0.0
2017-Aug-12 19:00N 37°25' E 025°19'0 0.1
2017-Aug-12 18:30N 37°25' E 025°19'0 0.0
2017-Aug-12 18:00N 37°25' E 025°19'0 0.1
2017-Aug-12 17:30N 37°25' E 025°19'3 6.2
2017-Aug-12 17:00N 37°25' E 025°23'0 0.1
2017-Aug-12 16:30N 37°25' E 025°23'0 0.0
2017-Aug-12 16:00N 37°25' E 025°23'0 0.0
2017-Aug-12 15:30N 37°25' E 025°23'0 0.0
2017-Aug-12 15:00N 37°25' E 025°23'0 0.1
2017-Aug-12 14:30N 37°25' E 025°23'0 0.0
2017-Aug-12 14:01N 37°25' E 025°23'0 0.0
2017-Aug-12 13:30N 37°25' E 025°23'0 0.0
2017-Aug-12 13:01N 37°25' E 025°23'0 0.0
2017-Aug-12 12:30N 37°25' E 025°23'0 0.0
2017-Aug-12 12:01N 37°25' E 025°23'0 0.1
2017-Aug-12 11:30N 37°25' E 025°23'0 0.0
2017-Aug-12 11:00N 37°25' E 025°23'0 0.0
2017-Aug-12 10:30N 37°25' E 025°23'0 0.0
2017-Aug-12 10:00N 37°25' E 025°23'0 0.0
2017-Aug-12 09:30N 37°25' E 025°23'0 0.0
2017-Aug-12 09:00N 37°25' E 025°23'0 0.1
2017-Aug-12 08:30N 37°25' E 025°23'0 0.0
2017-Aug-12 08:00N 37°25' E 025°23'0 0.0
2017-Aug-12 07:31N 37°25' E 025°23'  

Dump ship's entire track history